Time;durP1;ratioP1;P1;durP2;ratioP2;P2;SDS_P1;SDS_P2;PMS_P1;PMS_P2;Temp;Humidity;BMP_temperature;BMP_pressure;BME280_temperature;BME280_humidity;BME280_pressure;Samples;Min_cycle;Max_cycle;Signal;HPM_P1;HPM_P2
2022/12/14 00:01:53;;;;;;;29.67;16.63;;;;;;;;;;5078976;28;20232;-88
2022/12/14 00:04:20;;;;;;;29.63;17.15;;;;;;;;;;5079075;28;20260;-88
2022/12/14 00:06:48;;;;;;;19.35;13.18;;;;;;;;;;5078422;28;20713;-88
2022/12/14 00:09:15;;;;;;;27.58;15.13;;;;;;;;;;5077862;28;20197;-87
2022/12/14 00:11:43;;;;;;;30.13;17.77;;;;;;;;;;5078018;28;20681;-87
2022/12/14 00:14:12;;;;;;;39.58;22.05;;;;;;;;;;5077596;28;20346;-88
2022/12/14 00:16:39;;;;;;;41.13;22.08;;;;;;;;;;5078251;28;20264;-88
2022/12/14 00:19:07;;;;;;;44.65;23.55;;;;;;;;;;5077063;28;20284;-87
2022/12/14 00:21:34;;;;;;;36.15;23.05;;;;;;;;;;5077048;28;20280;-88
2022/12/14 00:24:02;;;;;;;38.85;22.88;;;;;;;;;;5079685;28;20319;-87
2022/12/14 00:26:32;;;;;;;31.80;19.25;;;;;;;;;;5079077;28;20257;-87
2022/12/14 00:29:01;;;;;;;25.27;15.52;;;;;;;;;;5077637;28;20284;-88
2022/12/14 00:31:31;;;;;;;27.42;16.63;;;;;;;;;;5079670;28;20649;-87
2022/12/14 00:33:59;;;;;;;26.77;17.10;;;;;;;;;;5077606;28;20239;-87
2022/12/14 00:36:30;;;;;;;17.30;11.90;;;;;;;;;;5077414;28;20231;-87
2022/12/14 00:38:57;;;;;;;16.33;10.32;;;;;;;;;;5076839;28;20657;-87
2022/12/14 00:41:25;;;;;;;13.23;9.65;;;;;;;;;;5077246;28;20284;-88
2022/12/14 00:43:52;;;;;;;16.30;10.75;;;;;;;;;;5077044;28;20762;-87
2022/12/14 00:46:20;;;;;;;13.55;9.35;;;;;;;;;;5077022;28;20358;-87
2022/12/14 00:48:49;;;;;;;11.40;8.32;;;;;;;;;;5076750;28;20212;-87
2022/12/14 00:51:17;;;;;;;11.32;8.38;;;;;;;;;;5076587;28;20736;-87
2022/12/14 00:53:45;;;;;;;11.38;7.53;;;;;;;;;;5076605;28;20213;-87
2022/12/14 00:56:13;;;;;;;12.55;8.35;;;;;;;;;;5076609;28;20211;-87
2022/12/14 00:58:40;;;;;;;12.45;8.68;;;;;;;;;;5076210;28;20207;-87
2022/12/14 01:01:12;;;;;;;11.85;8.13;;;;;;;;;;5076495;28;20231;-88
2022/12/14 01:03:39;;;;;;;9.43;5.75;;;;;;;;;;5077252;28;20645;-88
2022/12/14 01:06:15;;;;;;;7.43;5.68;;;;;;;;;;5076475;28;20319;-87
2022/12/14 01:08:42;;;;;;;9.10;6.57;;;;;;;;;;5076222;28;20207;-88
2022/12/14 01:11:11;;;;;;;6.88;4.88;;;;;;;;;;5076410;28;20284;-88
2022/12/14 01:13:40;;;;;;;5.00;3.90;;;;;;;;;;5075355;28;20269;-87
2022/12/14 01:16:09;;;;;;;7.07;4.47;;;;;;;;;;5075984;28;20657;-88
2022/12/14 01:18:39;;;;;;;6.88;4.65;;;;;;;;;;5075659;28;20193;-87
2022/12/14 01:21:14;;;;;;;6.88;5.13;;;;;;;;;;5076229;28;20224;-88
2022/12/14 01:23:42;;;;;;;4.18;3.67;;;;;;;;;;5064711;28;20300;-87
2022/12/14 01:26:10;;;;;;;6.43;5.03;;;;;;;;;;5056675;28;20225;-87
2022/12/14 01:28:38;;;;;;;5.38;4.20;;;;;;;;;;5055929;28;20197;-87
2022/12/14 01:31:08;;;;;;;5.18;3.08;;;;;;;;;;5056433;28;20649;-87
2022/12/14 01:33:35;;;;;;;5.53;4.22;;;;;;;;;;5055504;28;20182;-87
2022/12/14 01:36:07;;;;;;;5.50;4.68;;;;;;;;;;5056469;28;20712;-87
2022/12/14 01:38:37;;;;;;;5.43;3.88;;;;;;;;;;5056171;28;20618;-88
2022/12/14 01:41:05;;;;;;;6.03;3.75;;;;;;;;;;5055984;28;20352;-88
2022/12/14 01:43:50;;;;;;;5.07;3.50;;;;;;;;;;5056179;28;20229;-87
2022/12/14 01:46:24;;;;;;;4.72;3.63;;;;;;;;;;5055809;28;20225;-87
2022/12/14 01:48:55;;;;;;;5.70;3.97;;;;;;;;;;5055093;28;20312;-87
2022/12/14 01:51:23;;;;;;;7.03;4.45;;;;;;;;;;5055426;28;20230;-88
2022/12/14 01:53:52;;;;;;;4.60;3.67;;;;;;;;;;5067806;28;20292;-89
2022/12/14 01:56:20;;;;;;;6.93;4.60;;;;;;;;;;5075550;28;20205;-88
2022/12/14 01:58:47;;;;;;;7.55;4.85;;;;;;;;;;5074855;28;20649;-87
2022/12/14 02:01:16;;;;;;;3.72;3.40;;;;;;;;;;5075050;28;20280;-88
2022/12/14 02:03:46;;;;;;;5.15;4.22;;;;;;;;;;5075409;28;20287;-87
2022/12/14 02:06:16;;;;;;;5.05;3.78;;;;;;;;;;5075298;28;20700;-87
2022/12/14 02:08:44;;;;;;;5.63;4.00;;;;;;;;;;5074840;28;20193;-87
2022/12/14 02:11:14;;;;;;;3.30;2.65;;;;;;;;;;5075428;28;20208;-87
2022/12/14 02:13:42;;;;;;;3.35;2.90;;;;;;;;;;5074508;28;20681;-87
2022/12/14 02:16:10;;;;;;;4.15;3.10;;;;;;;;;;5074959;28;20656;-88
2022/12/14 02:18:38;;;;;;;5.65;3.60;;;;;;;;;;5075055;28;20225;-88
2022/12/14 02:21:23;;;;;;;5.20;4.18;;;;;;;;;;5075312;28;20200;-87
2022/12/14 02:24:27;;;;;;;5.43;3.80;;;;;;;;;;5074506;28;20205;-87
2022/12/14 02:27:08;;;;;;;6.35;5.07;;;;;;;;;;5075003;28;20223;-87
2022/12/14 02:30:06;;;;;;;8.50;5.88;;;;;;;;;;5074633;28;20752;-87
2022/12/14 02:33:02;;;;;;;10.50;6.72;;;;;;;;;;5070014;28;20574;-88
2022/12/14 02:35:41;;;;;;;8.13;6.13;;;;;;;;;;5074299;28;20294;-87
2022/12/14 02:38:45;;;;;;;11.55;7.60;;;;;;;;;;5074031;28;20200;-88
2022/12/14 02:41:17;;;;;;;7.55;6.30;;;;;;;;;;5074230;28;20208;-87
2022/12/14 02:43:54;;;;;;;10.48;7.07;;;;;;;;;;5075054;28;20292;-87
2022/12/14 02:46:28;;;;;;;10.45;7.22;;;;;;;;;;5078133;28;20188;-87
2022/12/14 02:49:02;;;;;;;11.55;6.63;;;;;;;;;;5078588;28;20221;-87
2022/12/14 02:51:40;;;;;;;11.20;5.82;;;;;;;;;;5078317;28;20560;-87
2022/12/14 02:54:13;;;;;;;9.27;6.72;;;;;;;;;;5079031;28;20292;-87
2022/12/14 02:56:47;;;;;;;9.68;6.85;;;;;;;;;;5078366;28;20207;-88
2022/12/14 02:59:15;;;;;;;11.23;7.47;;;;;;;;;;5078170;28;20203;-87
2022/12/14 03:01:46;;;;;;;11.10;7.55;;;;;;;;;;5077960;28;20636;-87
2022/12/14 03:04:14;;;;;;;11.05;7.22;;;;;;;;;;5078067;28;20225;-87
2022/12/14 03:06:53;;;;;;;12.90;6.80;;;;;;;;;;5078134;28;20623;-87
2022/12/14 03:09:21;;;;;;;12.45;7.28;;;;;;;;;;5077812;28;20201;-88
2022/12/14 03:11:54;;;;;;;10.13;6.93;;;;;;;;;;5079254;28;20796;-87
2022/12/14 03:14:27;;;;;;;10.30;7.75;;;;;;;;;;5078564;28;20594;-88
2022/12/14 03:17:00;;;;;;;8.65;5.63;;;;;;;;;;5078309;28;20209;-87
2022/12/14 03:19:31;;;;;;;8.82;6.45;;;;;;;;;;5077745;28;20288;-88
2022/12/14 03:22:01;;;;;;;13.18;7.57;;;;;;;;;;5077880;28;20702;-87
2022/12/14 03:24:32;;;;;;;8.45;6.18;;;;;;;;;;5077800;28;20705;-87
2022/12/14 03:27:04;;;;;;;11.30;7.95;;;;;;;;;;5077752;28;20189;-87
2022/12/14 03:29:35;;;;;;;9.68;6.68;;;;;;;;;;5077276;28;20213;-88
2022/12/14 03:32:07;;;;;;;9.77;6.85;;;;;;;;;;5077301;28;20764;-87
2022/12/14 03:34:40;;;;;;;10.48;7.47;;;;;;;;;;5077401;28;20308;-87
2022/12/14 03:37:11;;;;;;;9.60;7.25;;;;;;;;;;5077411;28;20197;-87
2022/12/14 03:39:41;;;;;;;9.98;8.65;;;;;;;;;;5077112;28;20261;-87
2022/12/14 03:42:14;;;;;;;9.75;7.00;;;;;;;;;;5077474;28;20201;-87
2022/12/14 03:44:45;;;;;;;24.77;13.02;;;;;;;;;;5077096;28;20635;-87
2022/12/14 03:47:29;;;;;;;17.73;9.85;;;;;;;;;;5077248;28;20232;-87
2022/12/14 03:50:01;;;;;;;13.43;8.20;;;;;;;;;;5077187;28;20204;-87
2022/12/14 03:52:35;;;;;;;12.93;8.88;;;;;;;;;;5076737;28;20227;-87
2022/12/14 03:55:12;;;;;;;12.82;7.78;;;;;;;;;;5076659;28;20718;-87
2022/12/14 03:57:51;;;;;;;11.55;7.50;;;;;;;;;;5077132;28;20197;-86
2022/12/14 04:00:22;;;;;;;8.60;6.65;;;;;;;;;;5076468;28;20181;-87
2022/12/14 04:02:59;;;;;;;9.55;6.60;;;;;;;;;;5076695;28;20185;-87
2022/12/14 04:05:32;;;;;;;12.50;9.00;;;;;;;;;;5076504;28;20299;-87
2022/12/14 04:08:06;;;;;;;13.20;8.05;;;;;;;;;;5077036;28;20216;-87
2022/12/14 04:19:19;;;;;;;13.25;9.00;;;;;;;;;;5028165;28;20193;-87
2022/12/14 04:21:51;;;;;;;11.13;7.47;;;;;;;;;;5075809;28;20578;-87
2022/12/14 04:27:35;;;;;;;14.07;7.35;;;;;;;;;;5033192;28;20190;-87
2022/12/14 04:30:04;;;;;;;10.57;7.82;;;;;;;;;;5033031;28;20185;-87
2022/12/14 04:32:36;;;;;;;10.38;7.43;;;;;;;;;;5055334;28;20204;-87
2022/12/14 04:35:11;;;;;;;11.80;8.45;;;;;;;;;;5075172;28;20355;-86
2022/12/14 04:37:41;;;;;;;9.65;7.28;;;;;;;;;;5074922;28;20311;-87
2022/12/14 04:40:11;;;;;;;10.65;8.45;;;;;;;;;;5074782;28;20295;-86
2022/12/14 04:42:45;;;;;;;12.57;9.32;;;;;;;;;;5074723;28;20284;-87
2022/12/14 04:45:17;;;;;;;9.38;7.47;;;;;;;;;;5075439;28;20220;-87
2022/12/14 04:47:54;;;;;;;10.50;7.78;;;;;;;;;;5074986;28;20669;-86
2022/12/14 04:50:28;;;;;;;11.15;6.88;;;;;;;;;;5075330;28;20181;-86
2022/12/14 04:53:00;;;;;;;9.85;6.63;;;;;;;;;;5075660;28;20208;-87
2022/12/14 04:55:33;;;;;;;11.25;6.63;;;;;;;;;;5077664;28;20259;-86
2022/12/14 04:58:05;;;;;;;10.20;6.85;;;;;;;;;;5075511;28;20287;-87
2022/12/14 05:00:37;;;;;;;10.00;7.22;;;;;;;;;;5075926;28;20227;-86
2022/12/14 05:03:27;;;;;;;11.40;6.30;;;;;;;;;;5076416;28;20201;-86
2022/12/14 05:06:07;;;;;;;7.97;5.50;;;;;;;;;;5070889;28;20308;-87
2022/12/14 05:09:08;;;;;;;9.35;6.78;;;;;;;;;;5076118;28;20299;-86
2022/12/14 05:11:40;;;;;;;11.80;7.75;;;;;;;;;;5076049;28;20375;-87
2022/12/14 05:14:12;;;;;;;9.43;6.47;;;;;;;;;;5076485;28;20229;-88
2022/12/14 05:16:40;;;;;;;9.55;7.10;;;;;;;;;;5076787;28;20598;-87
2022/12/14 05:19:09;;;;;;;11.70;7.00;;;;;;;;;;5076193;28;20197;-87
2022/12/14 05:21:46;;;;;;;9.15;7.00;;;;;;;;;;5076862;28;20603;-87
2022/12/14 05:24:15;;;;;;;10.60;6.80;;;;;;;;;;5076459;28;20303;-87
2022/12/14 05:26:42;;;;;;;8.38;6.40;;;;;;;;;;5076002;28;20291;-87
2022/12/14 05:29:10;;;;;;;8.38;6.38;;;;;;;;;;5075489;28;20312;-87
2022/12/14 05:31:38;;;;;;;5.35;4.68;;;;;;;;;;5076200;28;20288;-87
2022/12/14 05:34:06;;;;;;;9.93;6.45;;;;;;;;;;5075715;28;20249;-87
2022/12/14 05:36:34;;;;;;;8.38;6.82;;;;;;;;;;5076167;28;20204;-86
2022/12/14 05:39:03;;;;;;;10.43;6.90;;;;;;;;;;5075615;28;20203;-87
2022/12/14 05:41:30;;;;;;;10.20;7.00;;;;;;;;;;5076356;28;20687;-81
2022/12/14 05:43:58;;;;;;;9.63;7.70;;;;;;;;;;5083744;28;20489;-81
2022/12/14 05:46:25;;;;;;;9.25;6.47;;;;;;;;;;5092457;28;20236;-81
2022/12/14 05:48:53;;;;;;;9.82;6.40;;;;;;;;;;5092941;28;20221;-81
2022/12/14 05:51:21;;;;;;;8.35;6.20;;;;;;;;;;5093667;28;20266;-80
2022/12/14 05:53:48;;;;;;;10.88;8.13;;;;;;;;;;5093115;28;20209;-81
2022/12/14 05:56:17;;;;;;;10.30;7.57;;;;;;;;;;5091146;28;20233;-81
2022/12/14 05:58:44;;;;;;;7.50;5.82;;;;;;;;;;5089360;28;20228;-81
2022/12/14 06:01:12;;;;;;;9.23;6.93;;;;;;;;;;5090433;28;20743;-81
2022/12/14 06:03:40;;;;;;;12.43;7.75;;;;;;;;;;5090180;28;20247;-81
2022/12/14 06:06:10;;;;;;;7.45;6.45;;;;;;;;;;5088520;28;20236;-81
2022/12/14 06:08:40;;;;;;;11.20;8.68;;;;;;;;;;5089233;28;20217;-81
2022/12/14 06:11:10;;;;;;;10.35;8.40;;;;;;;;;;5088864;28;20234;-81
2022/12/14 06:13:40;;;;;;;7.43;5.72;;;;;;;;;;5088126;28;20673;-82
2022/12/14 06:16:10;;;;;;;8.57;5.65;;;;;;;;;;5089202;28;20645;-81
2022/12/14 06:18:40;;;;;;;7.00;5.32;;;;;;;;;;5090523;28;20231;-81
2022/12/14 06:21:08;;;;;;;8.85;6.65;;;;;;;;;;5091490;28;20708;-81
2022/12/14 06:23:35;;;;;;;8.45;6.72;;;;;;;;;;5091629;28;20552;-80
2022/12/14 06:26:03;;;;;;;9.65;7.13;;;;;;;;;;5092804;28;20235;-80
2022/12/14 06:28:30;;;;;;;7.90;7.07;;;;;;;;;;5090208;28;20627;-81
2022/12/14 06:30:59;;;;;;;14.98;9.57;;;;;;;;;;5091086;28;20229;-81
2022/12/14 06:33:27;;;;;;;15.63;10.23;;;;;;;;;;5088684;28;20256;-82
2022/12/14 06:35:54;;;;;;;16.15;11.65;;;;;;;;;;5090259;28;20767;-81
2022/12/14 06:38:22;;;;;;;14.18;9.52;;;;;;;;;;5095752;28;20192;-81
2022/12/14 06:40:49;;;;;;;9.43;7.45;;;;;;;;;;5110429;28;20224;-80
2022/12/14 06:43:17;;;;;;;10.20;8.73;;;;;;;;;;5110263;28;20227;-82
2022/12/14 06:45:44;;;;;;;14.23;10.43;;;;;;;;;;5106875;28;20241;-81
2022/12/14 06:48:13;;;;;;;18.88;12.25;;;;;;;;;;5089375;28;20312;-81
2022/12/14 06:50:41;;;;;;;22.33;12.45;;;;;;;;;;5099972;28;20246;-81
2022/12/14 06:53:12;;;;;;;12.95;8.52;;;;;;;;;;5102057;28;20746;-82
2022/12/14 06:55:40;;;;;;;12.10;8.23;;;;;;;;;;5088241;28;20288;-82
2022/12/14 06:58:09;;;;;;;7.57;5.72;;;;;;;;;;5087254;28;20291;-82
2022/12/14 07:00:36;;;;;;;5.68;3.97;;;;;;;;;;5087491;28;20216;-81
2022/12/14 07:03:04;;;;;;;3.95;3.45;;;;;;;;;;5088605;28;20209;-81
2022/12/14 07:05:33;;;;;;;3.75;3.25;;;;;;;;;;5087383;28;20244;-81
2022/12/14 07:08:00;;;;;;;3.67;2.67;;;;;;;;;;5086559;28;20296;-81
2022/12/14 07:10:28;;;;;;;4.43;4.03;;;;;;;;;;5087420;28;20279;-82
2022/12/14 07:12:55;;;;;;;3.10;2.80;;;;;;;;;;5086702;28;20579;-81
2022/12/14 07:15:23;;;;;;;4.45;3.83;;;;;;;;;;5084084;28;20288;-80
2022/12/14 07:17:50;;;;;;;5.75;3.08;;;;;;;;;;5084462;28;20201;-81
2022/12/14 07:20:18;;;;;;;3.50;2.95;;;;;;;;;;5085477;28;20227;-81
2022/12/14 07:22:47;;;;;;;4.28;2.90;;;;;;;;;;5085728;28;20264;-82
2022/12/14 07:25:15;;;;;;;3.20;2.90;;;;;;;;;;5084696;28;20256;-82
2022/12/14 07:27:43;;;;;;;3.20;2.47;;;;;;;;;;5100123;28;20280;-82
2022/12/14 07:30:12;;;;;;;3.17;2.60;;;;;;;;;;5105890;28;20288;-82
2022/12/14 07:32:39;;;;;;;4.00;3.35;;;;;;;;;;5100522;28;20709;-81
2022/12/14 07:35:08;;;;;;;3.95;3.50;;;;;;;;;;5085592;28;20317;-82
2022/12/14 07:37:36;;;;;;;3.38;3.13;;;;;;;;;;5086023;28;20207;-82
2022/12/14 07:40:06;;;;;;;2.75;2.38;;;;;;;;;;5084986;28;20295;-82
2022/12/14 07:42:33;;;;;;;5.28;3.78;;;;;;;;;;5084799;28;20402;-82
2022/12/14 07:45:01;;;;;;;5.68;4.88;;;;;;;;;;5083936;28;20256;-82
2022/12/14 07:47:30;;;;;;;9.15;6.18;;;;;;;;;;5080765;28;20291;-83
2022/12/14 07:49:57;;;;;;;7.18;5.10;;;;;;;;;;5080806;28;20231;-82
2022/12/14 07:52:25;;;;;;;8.48;6.43;;;;;;;;;;5079760;28;20309;-84
2022/12/14 07:54:52;;;;;;;6.70;5.55;;;;;;;;;;5077360;28;20382;-82
2022/12/14 07:57:21;;;;;;;8.60;6.53;;;;;;;;;;5077796;28;20257;-84
2022/12/14 07:59:49;;;;;;;7.22;5.57;;;;;;;;;;5077085;28;20284;-84
2022/12/14 08:02:16;;;;;;;6.30;5.45;;;;;;;;;;5076849;28;20257;-83
2022/12/14 08:04:44;;;;;;;7.30;4.90;;;;;;;;;;5076567;28;20283;-84
2022/12/14 08:07:11;;;;;;;6.15;5.38;;;;;;;;;;5076920;28;20196;-83
2022/12/14 08:09:39;;;;;;;7.63;4.78;;;;;;;;;;5076671;28;20286;-83
2022/12/14 08:12:06;;;;;;;5.53;4.82;;;;;;;;;;5076914;28;20264;-82
2022/12/14 08:14:35;;;;;;;6.90;5.45;;;;;;;;;;5076660;28;20361;-83
2022/12/14 08:17:02;;;;;;;6.63;5.03;;;;;;;;;;5078109;28;20283;-82
2022/12/14 08:19:30;;;;;;;4.30;3.90;;;;;;;;;;5079527;28;20205;-82
2022/12/14 08:21:57;;;;;;;3.80;3.40;;;;;;;;;;5079003;28;20672;-82
2022/12/14 08:24:25;;;;;;;5.22;3.97;;;;;;;;;;5079766;28;20315;-82
2022/12/14 08:26:52;;;;;;;3.60;3.13;;;;;;;;;;5086773;28;20283;-82
2022/12/14 08:29:21;;;;;;;5.32;3.65;;;;;;;;;;5098762;28;20267;-82
2022/12/14 08:31:50;;;;;;;5.82;4.00;;;;;;;;;;5099064;28;20224;-82
2022/12/14 08:34:21;;;;;;;4.95;4.38;;;;;;;;;;5079344;28;20319;-82
2022/12/14 08:36:49;;;;;;;8.13;5.82;;;;;;;;;;5078198;28;20212;-82
2022/12/14 08:39:16;;;;;;;8.43;6.18;;;;;;;;;;5078081;28;20247;-82
2022/12/14 08:41:44;;;;;;;6.93;5.78;;;;;;;;;;5078217;28;20742;-82
2022/12/14 08:44:15;;;;;;;5.15;4.65;;;;;;;;;;5077584;28;20308;-82
2022/12/14 08:46:43;;;;;;;4.78;3.90;;;;;;;;;;5078406;28;20217;-82
2022/12/14 08:49:13;;;;;;;5.15;4.70;;;;;;;;;;5077515;28;20295;-83
2022/12/14 08:51:40;;;;;;;6.65;4.70;;;;;;;;;;5077546;28;20311;-82
2022/12/14 08:54:08;;;;;;;9.43;7.47;;;;;;;;;;5077484;28;20319;-82
2022/12/14 08:56:35;;;;;;;10.98;6.68;;;;;;;;;;5077807;28;20211;-83
2022/12/14 08:59:03;;;;;;;10.85;7.95;;;;;;;;;;5081524;28;20219;-81
2022/12/14 09:01:31;;;;;;;12.20;8.82;;;;;;;;;;5081945;28;20707;-83
2022/12/14 09:04:04;;;;;;;7.53;6.55;;;;;;;;;;5083965;28;20288;-83
2022/12/14 09:06:35;;;;;;;11.18;8.50;;;;;;;;;;5084930;28;20212;-83
2022/12/14 09:09:03;;;;;;;13.75;10.70;;;;;;;;;;5084045;28;20643;-82
2022/12/14 09:11:31;;;;;;;16.50;11.82;;;;;;;;;;5082690;28;20310;-83
2022/12/14 09:13:59;;;;;;;14.48;8.38;;;;;;;;;;5081978;28;20221;-82
2022/12/14 09:16:26;;;;;;;12.65;9.95;;;;;;;;;;5081302;28;20745;-82
2022/12/14 09:18:55;;;;;;;17.70;11.85;;;;;;;;;;5081195;28;20620;-82
2022/12/14 09:21:22;;;;;;;14.43;10.80;;;;;;;;;;5081803;28;20744;-82
2022/12/14 09:23:51;;;;;;;17.88;12.55;;;;;;;;;;5081697;28;20205;-83
2022/12/14 09:26:21;;;;;;;14.52;9.77;;;;;;;;;;5082471;28;20192;-84
2022/12/14 09:28:51;;;;;;;12.75;10.35;;;;;;;;;;5096406;28;20282;-85
2022/12/14 09:31:22;;;;;;;16.27;11.40;;;;;;;;;;5096679;28;20639;-85
2022/12/14 09:33:50;;;;;;;14.27;10.20;;;;;;;;;;5083566;28;20296;-85
2022/12/14 09:36:21;;;;;;;17.77;12.23;;;;;;;;;;5078332;28;20224;-84
2022/12/14 09:38:53;;;;;;;18.25;13.10;;;;;;;;;;5081606;28;20232;-84
2022/12/14 09:41:32;;;;;;;12.80;9.95;;;;;;;;;;5081314;28;20201;-84
2022/12/14 09:44:07;;;;;;;13.43;9.45;;;;;;;;;;5081123;28;20220;-84
2022/12/14 09:46:47;;;;;;;17.27;12.05;;;;;;;;;;5080875;28;20193;-83
2022/12/14 09:49:26;;;;;;;21.13;14.63;;;;;;;;;;5082936;28;20204;-86
2022/12/14 09:51:55;;;;;;;13.88;9.65;;;;;;;;;;5080855;28;20288;-85
2022/12/14 09:54:28;;;;;;;14.95;11.75;;;;;;;;;;5078777;28;20264;-85
2022/12/14 09:57:00;;;;;;;13.25;10.05;;;;;;;;;;5078261;28;20917;-86
2022/12/14 09:59:30;;;;;;;11.93;8.80;;;;;;;;;;5074653;28;20665;-85
2022/12/14 10:02:15;;;;;;;10.98;8.55;;;;;;;;;;5074999;28;20197;-86
2022/12/14 10:04:53;;;;;;;10.00;8.23;;;;;;;;;;5055019;28;20251;-86
2022/12/14 10:07:27;;;;;;;12.38;8.43;;;;;;;;;;5054626;28;20202;-84
2022/12/14 10:10:04;;;;;;;10.23;8.20;;;;;;;;;;5054284;28;20288;-85
2022/12/14 10:12:45;;;;;;;10.82;7.95;;;;;;;;;;5054301;28;20288;-85
2022/12/14 10:15:24;;;;;;;15.52;10.98;;;;;;;;;;5054748;28;20224;-86
2022/12/14 10:18:17;;;;;;;11.48;9.13;;;;;;;;;;5057760;28;20202;-86
2022/12/14 10:20:53;;;;;;;8.02;7.22;;;;;;;;;;5054627;28;20642;-85
2022/12/14 10:23:23;;;;;;;9.88;7.32;;;;;;;;;;5063153;28;20728;-85
2022/12/14 10:25:55;;;;;;;10.52;7.53;;;;;;;;;;5074676;28;20726;-84
2022/12/14 10:28:39;;;;;;;11.05;8.35;;;;;;;;;;5093970;28;20287;-85
2022/12/14 10:31:11;;;;;;;7.07;5.70;;;;;;;;;;5094248;28;20314;-84
2022/12/14 10:33:44;;;;;;;8.60;6.40;;;;;;;;;;5080791;28;20661;-85
2022/12/14 10:36:20;;;;;;;10.38;8.50;;;;;;;;;;5074235;28;20258;-85
2022/12/14 10:38:56;;;;;;;8.70;6.63;;;;;;;;;;5073787;28;20333;-85
2022/12/14 10:41:33;;;;;;;9.13;6.97;;;;;;;;;;5074050;28;20197;-85
2022/12/14 10:44:06;;;;;;;9.25;8.30;;;;;;;;;;5074894;28;20216;-85
2022/12/14 10:46:43;;;;;;;10.52;8.07;;;;;;;;;;5074346;28;20288;-85
2022/12/14 10:49:16;;;;;;;7.93;7.13;;;;;;;;;;5075069;28;20287;-86
2022/12/14 10:51:47;;;;;;;7.50;6.72;;;;;;;;;;5073732;28;20312;-85
2022/12/14 10:54:25;;;;;;;13.25;9.98;;;;;;;;;;5074548;28;20669;-86
2022/12/14 10:56:54;;;;;;;12.00;8.98;;;;;;;;;;5073723;28;20290;-84
2022/12/14 10:59:34;;;;;;;11.05;8.30;;;;;;;;;;5073601;28;20207;-85
2022/12/14 11:02:06;;;;;;;8.38;6.53;;;;;;;;;;5073680;28;20641;-84
2022/12/14 11:04:39;;;;;;;8.55;6.50;;;;;;;;;;5074599;28;20236;-86
2022/12/14 11:07:09;;;;;;;9.40;7.82;;;;;;;;;;5077342;28;20205;-86
2022/12/14 11:09:38;;;;;;;8.38;6.72;;;;;;;;;;5077413;28;20205;-86
2022/12/14 11:12:15;;;;;;;11.32;8.88;;;;;;;;;;5077203;28;20645;-84
2022/12/14 11:14:55;;;;;;;9.68;7.70;;;;;;;;;;5077219;28;20303;-85
2022/12/14 11:17:35;;;;;;;13.18;11.27;;;;;;;;;;5077409;28;20668;-85
2022/12/14 11:20:22;;;;;;;15.38;11.25;;;;;;;;;;5077075;28;20283;-85
2022/12/14 11:22:53;;;;;;;19.80;12.90;;;;;;;;;;5076866;28;20691;-86
2022/12/14 11:25:36;;;;;;;11.95;9.20;;;;;;;;;;5077236;28;20231;-85
2022/12/14 11:28:23;;;;;;;12.43;11.15;;;;;;;;;;5095093;28;20282;-86
2022/12/14 11:30:58;;;;;;;12.50;10.90;;;;;;;;;;5098402;28;20227;-86
2022/12/14 11:33:32;;;;;;;13.30;11.80;;;;;;;;;;5086005;28;20315;-86
2022/12/14 11:35:59;;;;;;;10.73;8.18;;;;;;;;;;5077921;28;20226;-86
2022/12/14 11:38:28;;;;;;;6.97;6.18;;;;;;;;;;5077456;28;20204;-85
2022/12/14 11:40:56;;;;;;;10.80;7.60;;;;;;;;;;5077987;28;20291;-86
2022/12/14 11:43:33;;;;;;;15.80;11.80;;;;;;;;;;5077534;28;20284;-85
2022/12/14 11:46:01;;;;;;;14.50;11.85;;;;;;;;;;5077372;28;20252;-86
2022/12/14 11:48:30;;;;;;;7.95;7.03;;;;;;;;;;5076907;28;20251;-86
2022/12/14 11:51:11;;;;;;;10.75;9.55;;;;;;;;;;5077353;28;20236;-86
2022/12/14 11:53:39;;;;;;;9.32;7.40;;;;;;;;;;5076607;28;20229;-87
2022/12/14 11:56:10;;;;;;;13.70;11.32;;;;;;;;;;5077160;28;20283;-87
2022/12/14 11:58:48;;;;;;;8.10;7.25;;;;;;;;;;5076589;28;20211;-86
2022/12/14 12:01:19;;;;;;;10.65;7.63;;;;;;;;;;5076977;28;20296;-86
2022/12/14 12:03:48;;;;;;;9.48;8.48;;;;;;;;;;5076537;28;20644;-85
2022/12/14 12:06:23;;;;;;;10.02;8.93;;;;;;;;;;5076403;28;20582;-86
2022/12/14 12:08:56;;;;;;;15.70;11.57;;;;;;;;;;5076017;28;20290;-86
2022/12/14 12:11:27;;;;;;;12.73;9.55;;;;;;;;;;5076523;28;20208;-84
2022/12/14 12:14:01;;;;;;;9.05;7.57;;;;;;;;;;5076093;28;20212;-85
2022/12/14 12:16:31;;;;;;;8.13;7.28;;;;;;;;;;5074646;28;20212;-85
2022/12/14 12:19:02;;;;;;;11.07;8.35;;;;;;;;;;5075135;28;20690;-86
2022/12/14 12:21:31;;;;;;;10.27;8.30;;;;;;;;;;5075599;28;20284;-86
2022/12/14 12:24:03;;;;;;;11.40;8.75;;;;;;;;;;5075713;28;20335;-86
2022/12/14 12:26:34;;;;;;;12.10;9.18;;;;;;;;;;5079888;28;20631;-86
2022/12/14 12:29:12;;;;;;;8.63;7.60;;;;;;;;;;5095570;28;20653;-86
2022/12/14 12:31:48;;;;;;;11.27;8.68;;;;;;;;;;5096008;28;20210;-86
2022/12/14 12:34:19;;;;;;;14.27;10.57;;;;;;;;;;5076204;28;20220;-86
2022/12/14 12:36:48;;;;;;;10.93;8.98;;;;;;;;;;5075128;28;20743;-86
2022/12/14 12:39:19;;;;;;;8.93;7.72;;;;;;;;;;5074904;28;20200;-86
2022/12/14 12:41:52;;;;;;;13.88;11.00;;;;;;;;;;5077364;28;20288;-87
2022/12/14 12:44:35;;;;;;;18.60;13.40;;;;;;;;;;5080424;28;20225;-87
2022/12/14 12:47:24;;;;;;;17.40;13.05;;;;;;;;;;5081343;28;20255;-86
2022/12/14 12:49:51;;;;;;;29.15;19.95;;;;;;;;;;5077624;28;20224;-86
2022/12/14 12:52:24;;;;;;;16.85;12.73;;;;;;;;;;5078478;28;20227;-87
2022/12/14 12:54:57;;;;;;;19.20;12.63;;;;;;;;;;5080877;28;20300;-86
2022/12/14 12:57:30;;;;;;;14.77;12.20;;;;;;;;;;5097633;28;20191;-85
2022/12/14 13:00:00;;;;;;;15.25;12.18;;;;;;;;;;5097206;28;20220;-86
2022/12/14 13:02:31;;;;;;;25.30;20.15;;;;;;;;;;5092777;28;20287;-86
2022/12/14 13:05:03;;;;;;;16.65;12.25;;;;;;;;;;5076969;28;20312;-87
2022/12/14 13:07:36;;;;;;;16.30;11.40;;;;;;;;;;5092092;28;20228;-86
2022/12/14 13:10:12;;;;;;;21.08;17.13;;;;;;;;;;5096904;28;20735;-86
2022/12/14 13:12:45;;;;;;;15.48;12.32;;;;;;;;;;5096816;28;20219;-87
2022/12/14 13:15:21;;;;;;;15.27;13.27;;;;;;;;;;5097262;28;20262;-86
2022/12/14 13:17:51;;;;;;;16.42;11.70;;;;;;;;;;5097418;28;20311;-87
2022/12/14 13:20:22;;;;;;;17.73;13.32;;;;;;;;;;5097101;28;20223;-87
2022/12/14 13:22:50;;;;;;;15.80;13.15;;;;;;;;;;5093803;28;20276;-86
2022/12/14 13:25:22;;;;;;;22.45;16.00;;;;;;;;;;5077519;28;20608;-86
2022/12/14 13:28:14;;;;;;;15.00;11.18;;;;;;;;;;5076895;28;20204;-86
2022/12/14 13:31:03;;;;;;;25.23;18.25;;;;;;;;;;5076975;28;20369;-85
2022/12/14 13:34:07;;;;;;;12.50;11.07;;;;;;;;;;5064565;28;20228;-86
2022/12/14 13:36:53;;;;;;;16.63;11.43;;;;;;;;;;5056442;28;20205;-86
2022/12/14 13:39:58;;;;;;;16.08;12.75;;;;;;;;;;5057294;28;20205;-86
2022/12/14 13:42:33;;;;;;;14.13;11.88;;;;;;;;;;5042044;28;20292;-87
2022/12/14 13:45:02;;;;;;;16.88;9.75;;;;;;;;;;5097394;28;20323;-86
2022/12/14 13:47:41;;;;;;;14.90;11.40;;;;;;;;;;5097075;28;20684;-85
2022/12/14 13:50:25;;;;;;;11.90;10.48;;;;;;;;;;5097620;28;20578;-86
2022/12/14 13:52:57;;;;;;;13.07;10.68;;;;;;;;;;5093492;28;20717;-86
2022/12/14 13:55:33;;;;;;;13.25;10.20;;;;;;;;;;5077046;28;20257;-86
2022/12/14 13:58:17;;;;;;;12.48;10.85;;;;;;;;;;5077188;28;20646;-85
2022/12/14 14:00:58;;;;;;;13.90;11.48;;;;;;;;;;5077809;28;20239;-86
2022/12/14 14:03:51;;;;;;;16.08;11.07;;;;;;;;;;5077979;28;20211;-86
2022/12/14 14:06:34;;;;;;;16.38;12.57;;;;;;;;;;5077416;28;20204;-86
2022/12/14 14:09:55;;;;;;;22.88;16.75;;;;;;;;;;5077694;28;20196;-86
2022/12/14 14:12:43;;;;;;;15.80;11.73;;;;;;;;;;5078670;28;20644;-86
2022/12/14 14:15:48;;;;;;;18.35;11.35;;;;;;;;;;5075981;28;20224;-85
2022/12/14 14:18:20;;;;;;;11.27;9.13;;;;;;;;;;5078049;28;20264;-86
2022/12/14 14:21:10;;;;;;;14.13;9.85;;;;;;;;;;5080016;28;20288;-86
2022/12/14 14:23:52;;;;;;;13.55;8.77;;;;;;;;;;5079255;28;20288;-85
2022/12/14 14:26:28;;;;;;;12.15;9.65;;;;;;;;;;5080204;28;20271;-86
2022/12/14 14:29:19;;;;;;;11.70;9.45;;;;;;;;;;5078690;28;20228;-85
2022/12/14 14:31:50;;;;;;;12.25;8.88;;;;;;;;;;5081389;28;20212;-85
2022/12/14 14:34:24;;;;;;;12.70;8.32;;;;;;;;;;5078988;28;20233;-86
2022/12/14 14:36:52;;;;;;;10.05;8.68;;;;;;;;;;5078713;28;20268;-84
2022/12/14 14:39:34;;;;;;;11.90;9.20;;;;;;;;;;5078124;28;20295;-86
2022/12/14 14:42:05;;;;;;;13.80;9.57;;;;;;;;;;5082832;28;20264;-83
2022/12/14 14:44:40;;;;;;;13.80;9.68;;;;;;;;;;5103238;28;20244;-86
2022/12/14 14:47:21;;;;;;;11.88;10.13;;;;;;;;;;5103357;28;20207;-85
2022/12/14 14:49:54;;;;;;;12.18;8.32;;;;;;;;;;5104047;28;20212;-85
2022/12/14 14:52:59;;;;;;;13.90;9.98;;;;;;;;;;5083344;28;20573;-84
2022/12/14 14:56:34;;;;;;;12.02;8.55;;;;;;;;;;5082445;28;20231;-85
2022/12/14 14:59:40;;;;;;;11.07;8.07;;;;;;;;;;5082213;28;20287;-85
2022/12/14 15:02:32;;;;;;;13.43;9.48;;;;;;;;;;5082247;28;20235;-85
2022/12/14 15:05:01;;;;;;;12.52;8.88;;;;;;;;;;5083849;28;20787;-85
2022/12/14 15:07:30;;;;;;;11.60;8.77;;;;;;;;;;5082717;28;20584;-84
2022/12/14 15:10:05;;;;;;;10.55;8.40;;;;;;;;;;5081681;28;20196;-85
2022/12/14 15:12:41;;;;;;;11.85;10.48;;;;;;;;;;5081831;28;20200;-85
2022/12/14 15:15:17;;;;;;;10.55;8.48;;;;;;;;;;5082487;28;20248;-83
2022/12/14 15:17:45;;;;;;;11.25;8.27;;;;;;;;;;5084378;28;20196;-85
2022/12/14 15:20:23;;;;;;;10.65;8.52;;;;;;;;;;5080466;28;20204;-83